Main page
METAR-TAF:

METAR-TAF

Airports :

Sparta/Fort McCoy Airport

Sparta, Wisconsin, United States

latitude: 43-57-30N, longitude: 090-44-16W, elevation: 836 ft

Current weather observation

The report was made 26 minutes ago, at 08:24 UTC
Wind 12 mph from the West/Southwest with gusts up to 24 mph
Temperature 59°F
Humidity 94%
Pressure 29.47 in. Hg
Visibility: 7 miles
Overcast at a height of 1100 ft

METAR: KCMY 220824Z AUTO 24010G21KT 7SM OVC011 15/14 A2947 RMK AO2 RAB12E24 SLP980 $

Time: 03:50 (08:50 UTC)


TAF: missing

Weather observations and forecasts of more than 4000 airports (METAR and TAF reports).

The available stations are represented by yellow and red dots on the map.

Hover mouse over dot to see the name of the station.

Then click to see weather observations and forecasts.

To change the map : click on the green buttons with a black cross to zoom in, on the green button with a dash to zoom out, or on the green arrows for adjacent maps.


METAR-TAF: